PWSweather.com
Personal Weather Stations
Station Observations
SOGLIANOFC
Sogliano Al RubiconeIT 47030

Sogliano Al RubiconeIT 47030

Lat: 44.0108, Lon: 12.3138

Elevation: 1132

Station Type: DAVIS Vantage PRO2

Latest ConditionsUpdated 4:50:04 AM GMT+01:01 Friday, Feb 23, 2018
Currently Today's Max Today's Min Today's Average
Temperature 35.1°F1.7°C 37.3°F2.9°C 34.6°F1.4°C 35.9°F2.2°C
Dew Point 34.8°F1.6°C 37.0°F2.8°C 34.3°F1.3°C 35.6°F2.0°C
Winds 8.0 mph NW12.9 kmh NW 8.0 mph WNW12.9 kmh WNW - 3.9 mph 6.3 kmh
Wind Gusts 10.0 mph16.1 kmh 15.0 mph24.1 kmh - -
Humidity 99% 99% 99% 99%
Pressure 29.70 in1005.8 mb 29.73 in1006.8 mb 29.70 in1005.8 mb -
Hour Temp Dew Point Humidity Winds Wind Gusts Pressure Precip Precip Rate Daily Precip Total
04:50 AM 35.1°F1.7°C 34.8°F1.6°C 99% 8.0 mph NW12.9 kmh NW 10.0 mph16.1 kmh 29.70 in1005.8 mb 0.12 in3.0 mm 0.00 in0.0 mm 0.35 in8.9 mm
04:45 AM 35.3°F1.8°C 35.0°F1.7°C 99% 6.0 mph W9.7 kmh W 8.0 mph12.9 kmh 29.70 in1005.8 mb 0.12 in3.0 mm 0.00 in0.0 mm 0.35 in8.9 mm
04:40 AM 35.2°F1.8°C 34.9°F1.6°C 99% 5.0 mph WSW8.0 kmh WSW 6.0 mph9.7 kmh 29.70 in1005.8 mb 0.12 in3.0 mm 0.00 in0.0 mm 0.35 in8.9 mm
04:35 AM 35.1°F1.7°C 34.8°F1.6°C 99% 6.0 mph WSW9.7 kmh WSW 8.0 mph12.9 kmh 29.70 in1005.8 mb 0.13 in3.3 mm 0.00 in0.0 mm 0.35 in8.9 mm
04:30 AM 35.1°F1.7°C 34.8°F1.6°C 99% 7.0 mph WNW11.3 kmh WNW 8.0 mph12.9 kmh 29.70 in1005.8 mb 0.14 in3.6 mm 0.12 in3.0 mm 0.35 in8.9 mm
04:25 AM 34.9°F1.6°C 34.6°F1.4°C 99% 6.0 mph W9.7 kmh W 9.0 mph14.5 kmh 29.70 in1005.8 mb 0.13 in3.3 mm 0.00 in0.0 mm 0.34 in8.6 mm
04:20 AM 34.6°F1.4°C 34.3°F1.3°C 99% 4.0 mph W6.4 kmh W 7.0 mph11.3 kmh 29.70 in1005.8 mb 0.13 in3.3 mm 0.00 in0.0 mm 0.34 in8.6 mm
04:15 AM 34.7°F1.5°C 34.4°F1.3°C 99% 3.0 mph WNW4.8 kmh WNW 8.0 mph12.9 kmh 29.70 in1005.8 mb 0.13 in3.3 mm 0.00 in0.0 mm 0.34 in8.6 mm
04:10 AM 34.7°F1.5°C 34.4°F1.3°C 99% 4.0 mph WNW6.4 kmh WNW 10.0 mph16.1 kmh 29.70 in1005.8 mb 0.14 in3.6 mm 0.00 in0.0 mm 0.34 in8.6 mm
04:05 AM 34.8°F1.6°C 34.5°F1.4°C 99% 6.0 mph W9.7 kmh W 9.0 mph14.5 kmh 29.70 in1005.8 mb 0.15 in3.8 mm 0.12 in3.0 mm 0.34 in8.6 mm
04:00 AM 34.7°F1.5°C 34.4°F1.3°C 99% 6.0 mph NW9.7 kmh NW 8.0 mph12.9 kmh 29.70 in1005.8 mb 0.14 in3.6 mm 0.01 in0.3 mm 0.33 in8.4 mm
03:55 AM 34.9°F1.6°C 34.6°F1.4°C 99% 5.0 mph WNW8.0 kmh WNW 8.0 mph12.9 kmh 29.70 in1005.8 mb 0.13 in3.3 mm 0.00 in0.0 mm 0.32 in8.1 mm
03:50 AM 35.2°F1.8°C 34.9°F1.6°C 99% 8.0 mph WNW12.9 kmh WNW 8.0 mph12.9 kmh 29.70 in1005.8 mb 0.15 in3.8 mm 0.00 in0.0 mm 0.32 in8.1 mm
03:45 AM 35.3°F1.8°C 35.0°F1.7°C 99% 4.0 mph W6.4 kmh W 7.0 mph11.3 kmh 29.70 in1005.8 mb 0.15 in3.8 mm 0.12 in3.0 mm 0.32 in8.1 mm
03:40 AM 35.5°F1.9°C 35.2°F1.8°C 99% 3.0 mph WNW4.8 kmh WNW 7.0 mph11.3 kmh 29.70 in1005.8 mb 0.14 in3.6 mm 0.00 in0.0 mm 0.31 in7.9 mm
03:35 AM 35.4°F1.9°C 35.1°F1.7°C 99% 5.0 mph NW8.0 kmh NW 11.0 mph17.7 kmh 29.70 in1005.8 mb 0.15 in3.8 mm 0.00 in0.0 mm 0.31 in7.9 mm
03:30 AM 35.4°F1.9°C 35.1°F1.7°C 99% 4.0 mph W6.4 kmh W 7.0 mph11.3 kmh 29.70 in1005.8 mb 0.15 in3.8 mm 0.00 in0.0 mm 0.31 in7.9 mm
03:25 AM 35.3°F1.8°C 35.0°F1.7°C 99% 4.0 mph NW6.4 kmh NW 6.0 mph9.7 kmh 29.70 in1005.8 mb 0.16 in4.1 mm 0.12 in3.0 mm 0.31 in7.9 mm
03:20 AM 35.4°F1.9°C 35.1°F1.7°C 99% 2.0 mph WNW3.2 kmh WNW 5.0 mph8.0 kmh 29.70 in1005.8 mb 0.15 in3.8 mm 0.00 in0.0 mm 0.30 in7.6 mm
03:15 AM 35.5°F1.9°C 35.2°F1.8°C 99% 4.0 mph WNW6.4 kmh WNW 7.0 mph11.3 kmh 29.70 in1005.8 mb 0.15 in3.8 mm 0.00 in0.0 mm 0.30 in7.6 mm
03:10 AM 35.4°F1.9°C 35.1°F1.7°C 99% 4.0 mph WNW6.4 kmh WNW 8.0 mph12.9 kmh 29.70 in1005.8 mb 0.15 in3.8 mm 0.12 in3.0 mm 0.30 in7.6 mm
03:05 AM 35.3°F1.8°C 35.0°F1.7°C 99% 4.0 mph NW6.4 kmh NW 8.0 mph12.9 kmh 29.71 in1006.1 mb 0.14 in3.6 mm 0.00 in0.0 mm 0.29 in7.4 mm
03:00 AM 35.5°F1.9°C 35.2°F1.8°C 99% 4.0 mph WNW6.4 kmh WNW 8.0 mph12.9 kmh 29.71 in1006.1 mb 0.16 in4.1 mm 0.00 in0.0 mm 0.29 in7.4 mm
02:55 AM 35.5°F1.9°C 35.2°F1.8°C 99% 3.0 mph WNW4.8 kmh WNW 4.0 mph6.4 kmh 29.71 in1006.1 mb 0.18 in4.6 mm 0.24 in6.1 mm 0.29 in7.4 mm
02:50 AM 35.5°F1.9°C 35.2°F1.8°C 99% 2.0 mph W3.2 kmh W 4.0 mph6.4 kmh 29.71 in1006.1 mb 0.16 in4.1 mm 0.00 in0.0 mm 0.27 in6.9 mm
02:45 AM 35.5°F1.9°C 35.2°F1.8°C 99% 3.0 mph WNW4.8 kmh WNW 6.0 mph9.7 kmh 29.71 in1006.1 mb 0.17 in4.3 mm 0.00 in0.0 mm 0.27 in6.9 mm
02:40 AM 35.5°F1.9°C 35.2°F1.8°C 99% 3.0 mph NW4.8 kmh NW 7.0 mph11.3 kmh 29.71 in1006.1 mb 0.19 in4.8 mm 0.24 in6.1 mm 0.27 in6.9 mm
02:35 AM 35.4°F1.9°C 35.1°F1.7°C 99% 5.0 mph NW8.0 kmh NW 6.0 mph9.7 kmh 29.71 in1006.1 mb 0.17 in4.3 mm 0.00 in0.0 mm 0.25 in6.4 mm
02:30 AM 35.3°F1.8°C 35.0°F1.7°C 99% 5.0 mph W8.0 kmh W 6.0 mph9.7 kmh 29.72 in1006.4 mb 0.18 in4.6 mm 0.00 in0.0 mm 0.25 in6.4 mm
02:25 AM 35.2°F1.8°C 34.9°F1.6°C 99% 5.0 mph W8.0 kmh W 7.0 mph11.3 kmh 29.72 in1006.4 mb 0.18 in4.6 mm 0.00 in0.0 mm 0.25 in6.4 mm
02:20 AM 35.1°F1.7°C 34.8°F1.6°C 99% 3.0 mph WNW4.8 kmh WNW 5.0 mph8.0 kmh 29.72 in1006.4 mb 0.20 in5.1 mm 0.12 in3.0 mm 0.25 in6.4 mm
02:15 AM 35.1°F1.7°C 34.8°F1.6°C 99% 4.0 mph NW6.4 kmh NW 5.0 mph8.0 kmh 29.72 in1006.4 mb 0.19 in4.8 mm 0.00 in0.0 mm 0.24 in6.1 mm
02:10 AM 35.4°F1.9°C 35.1°F1.7°C 99% 4.0 mph W6.4 kmh W 7.0 mph11.3 kmh 29.72 in1006.4 mb 0.19 in4.8 mm 0.00 in0.0 mm 0.24 in6.1 mm
02:05 AM 35.8°F2.1°C 35.5°F1.9°C 99% 4.0 mph WNW6.4 kmh WNW 7.0 mph11.3 kmh 29.72 in1006.4 mb 0.20 in5.1 mm 0.00 in0.0 mm 0.24 in6.1 mm
02:00 AM 35.8°F2.1°C 35.5°F1.9°C 99% 3.0 mph NW4.8 kmh NW 7.0 mph11.3 kmh 29.72 in1006.4 mb 0.20 in5.1 mm 0.00 in0.0 mm 0.24 in6.1 mm
01:55 AM 36.1°F2.3°C 35.8°F2.1°C 99% 3.0 mph WNW4.8 kmh WNW 5.0 mph8.0 kmh 29.72 in1006.4 mb 0.20 in5.1 mm 0.00 in0.0 mm 0.24 in6.1 mm
01:50 AM 36.6°F2.6°C 36.3°F2.4°C 99% 4.0 mph W6.4 kmh W 7.0 mph11.3 kmh 29.72 in1006.4 mb 0.22 in5.6 mm 0.00 in0.0 mm 0.24 in6.1 mm
01:45 AM 37.3°F2.9°C 37.0°F2.8°C 99% 6.0 mph NW9.7 kmh NW 9.0 mph14.5 kmh 29.71 in1006.1 mb 0.22 in5.6 mm 0.12 in3.0 mm 0.24 in6.1 mm
01:40 AM 37.3°F2.9°C 37.0°F2.8°C 99% 5.0 mph NW8.0 kmh NW 8.0 mph12.9 kmh 29.72 in1006.4 mb 0.21 in5.3 mm 0.12 in3.0 mm 0.23 in5.8 mm
01:35 AM 37.2°F2.9°C 36.9°F2.7°C 99% 2.0 mph NW3.2 kmh NW 6.0 mph9.7 kmh 29.72 in1006.4 mb 0.20 in5.1 mm 0.12 in3.0 mm 0.22 in5.6 mm
01:30 AM 36.7°F2.6°C 36.4°F2.4°C 99% 3.0 mph NW4.8 kmh NW 4.0 mph6.4 kmh 29.72 in1006.4 mb 0.19 in4.8 mm 0.00 in0.0 mm 0.21 in5.3 mm
01:25 AM 36.8°F2.7°C 36.5°F2.5°C 99% 1.0 mph E1.6 kmh E 6.0 mph9.7 kmh 29.72 in1006.4 mb 0.20 in5.1 mm 0.12 in3.0 mm 0.21 in5.3 mm
01:20 AM 37.0°F2.8°C 36.7°F2.6°C 99% 3.0 mph NW4.8 kmh NW 6.0 mph9.7 kmh 29.72 in1006.4 mb 0.19 in4.8 mm 0.00 in0.0 mm 0.20 in5.1 mm
01:15 AM 37.0°F2.8°C 36.7°F2.6°C 99% 3.0 mph NNW4.8 kmh NNW 6.0 mph9.7 kmh 29.72 in1006.4 mb 0.19 in4.8 mm 0.00 in0.0 mm 0.20 in5.1 mm
01:10 AM 37.0°F2.8°C 36.7°F2.6°C 99% 2.0 mph N3.2 kmh N 7.0 mph11.3 kmh 29.72 in1006.4 mb 0.19 in4.8 mm 0.12 in3.0 mm 0.20 in5.1 mm
01:05 AM 37.0°F2.8°C 36.7°F2.6°C 99% 3.0 mph NNE4.8 kmh NNE 5.0 mph8.0 kmh 29.72 in1006.4 mb 0.18 in4.6 mm 0.12 in3.0 mm 0.19 in4.8 mm
01:00 AM 37.0°F2.8°C 36.7°F2.6°C 99% Calm Calm 9.0 mph14.5 kmh 29.72 in1006.4 mb 0.17 in4.3 mm 0.00 in0.0 mm 0.18 in4.6 mm
12:55 AM 37.1°F2.8°C 36.8°F2.7°C 99% 2.0 mph E3.2 kmh E 12.0 mph19.3 kmh 29.73 in1006.8 mb 0.17 in4.3 mm 0.12 in3.0 mm 0.18 in4.6 mm
12:50 AM 37.1°F2.8°C 36.8°F2.7°C 99% 5.0 mph NE8.0 kmh NE 12.0 mph19.3 kmh 29.72 in1006.4 mb 0.16 in4.1 mm 0.00 in0.0 mm 0.17 in4.3 mm
12:45 AM 37.1°F2.8°C 36.8°F2.7°C 99% 4.0 mph E6.4 kmh E 11.0 mph17.7 kmh 29.73 in1006.8 mb 0.16 in4.1 mm 0.12 in3.0 mm 0.17 in4.3 mm
12:40 AM 36.9°F2.7°C 36.6°F2.6°C 99% 4.0 mph E6.4 kmh E 5.0 mph8.0 kmh 29.73 in1006.8 mb 0.15 in3.8 mm 0.00 in0.0 mm 0.16 in4.1 mm
12:35 AM 37.0°F2.8°C 36.7°F2.6°C 99% 1.0 mph E1.6 kmh E 15.0 mph24.1 kmh 29.73 in1006.8 mb 0.15 in3.8 mm 0.00 in0.0 mm 0.16 in4.1 mm
12:30 AM 37.0°F2.8°C 36.7°F2.6°C 99% 4.0 mph ENE6.4 kmh ENE 10.0 mph16.1 kmh 29.73 in1006.8 mb 0.16 in4.1 mm 0.24 in6.1 mm 0.16 in4.1 mm
12:25 AM 37.0°F2.8°C 36.7°F2.6°C 99% 1.0 mph E1.6 kmh E 10.0 mph16.1 kmh 29.73 in1006.8 mb 0.14 in3.6 mm 0.00 in0.0 mm 0.14 in3.6 mm
12:20 AM 37.0°F2.8°C 36.7°F2.6°C 99% 4.0 mph E6.4 kmh E 10.0 mph16.1 kmh 29.73 in1006.8 mb 0.14 in3.6 mm 0.12 in3.0 mm 0.14 in3.6 mm
12:15 AM 36.6°F2.6°C 36.3°F2.4°C 99% 3.0 mph E4.8 kmh E 5.0 mph8.0 kmh 29.73 in1006.8 mb 0.13 in3.3 mm 0.00 in0.0 mm 0.13 in3.3 mm
12:10 AM 36.6°F2.6°C 36.3°F2.4°C 99% 4.0 mph ENE6.4 kmh ENE 6.0 mph9.7 kmh 29.73 in1006.8 mb 0.13 in3.3 mm 0.12 in3.0 mm 0.13 in3.3 mm
12:05 AM 36.6°F2.6°C 36.3°F2.4°C 99% 2.0 mph NE3.2 kmh NE 4.0 mph6.4 kmh 29.73 in1006.8 mb 0.12 in3.0 mm 0.00 in0.0 mm 0.12 in3.0 mm
12:00 AM 36.6°F2.6°C 36.3°F2.4°C 99% 3.0 mph ENE4.8 kmh ENE 8.0 mph12.9 kmh 29.73 in1006.8 mb 0.12 in3.0 mm 0.00 in0.0 mm 0.12 in3.0 mm